Time;durP1;ratioP1;P1;durP2;ratioP2;P2;SDS_P1;SDS_P2;PMS_P1;PMS_P2;Temp;Humidity;BMP_temperature;BMP_pressure;BME280_temperature;BME280_humidity;BME280_pressure;Samples;Min_cycle;Max_cycle;Signal;HPM_P1;HPM_P2
2023/05/01 00:00:40;;;;;;;;;;;12.20;99.90;;;;;;4971333;28;19945;-65
2023/05/01 00:03:06;;;;;;;;;;;12.10;99.90;;;;;;4969738;28;19957;-65
2023/05/01 00:05:31;;;;;;;;;;;12.00;99.90;;;;;;4971124;28;20354;-64
2023/05/01 00:07:57;;;;;;;;;;;12.10;99.90;;;;;;4969657;28;19925;-65
2023/05/01 00:10:22;;;;;;;;;;;12.10;99.90;;;;;;4968962;28;20073;-66
2023/05/01 00:12:48;;;;;;;;;;;12.10;99.90;;;;;;4976098;28;19921;-66
2023/05/01 00:15:13;;;;;;;;;;;12.00;99.90;;;;;;4970699;28;19926;-66
2023/05/01 00:17:39;;;;;;;;;;;11.90;99.90;;;;;;4971110;28;20578;-66
2023/05/01 00:20:05;;;;;;;;;;;11.60;99.90;;;;;;4962399;28;19941;-65
2023/05/01 00:22:30;;;;;;;;;;;11.50;99.90;;;;;;4967835;28;19918;-66
2023/05/01 00:24:56;;;;;;;;;;;11.40;99.90;;;;;;4967738;28;19918;-66
2023/05/01 00:27:21;;;;;;;;;;;11.30;99.90;;;;;;4972642;28;19925;-65
2023/05/01 00:29:47;;;;;;;;;;;11.40;99.90;;;;;;4977665;28;19922;-63
2023/05/01 00:32:14;;;;;;;;;;;11.30;99.90;;;;;;4971183;28;19945;-64
2023/05/01 00:34:39;;;;;;;;;;;11.30;99.90;;;;;;4972663;28;19952;-64
2023/05/01 00:37:05;;;;;;;;;;;11.20;99.90;;;;;;4969259;28;20409;-64
2023/05/01 00:39:30;;;;;;;;;;;11.20;99.90;;;;;;4962473;28;19914;-63
2023/05/01 00:41:56;;;;;;;;;;;11.20;99.90;;;;;;4971908;28;19925;-64
2023/05/01 00:44:21;;;;;;;;;;;11.20;99.90;;;;;;4970898;28;19925;-64
2023/05/01 00:46:47;;;;;;;;;;;11.10;99.90;;;;;;4968982;28;19925;-64
2023/05/01 00:49:13;;;;;;;;;;;10.90;99.90;;;;;;4965020;28;19926;-64
2023/05/01 00:51:40;;;;;;;;;;;10.70;99.90;;;;;;4957256;28;19924;-64
2023/05/01 00:54:05;;;;;;;;;;;10.60;99.90;;;;;;4967015;28;19918;-64
2023/05/01 00:56:31;;;;;;;;;;;10.60;99.90;;;;;;4970470;28;19924;-64
2023/05/01 00:58:56;;;;;;;;;;;10.60;99.90;;;;;;4970722;28;19926;-65
2023/05/01 01:01:22;;;;;;;;;;;10.60;99.90;;;;;;4968798;28;19959;-65
2023/05/01 01:03:50;;;;;;;;;;;10.50;99.90;;;;;;4971474;28;20089;-65
2023/05/01 01:06:33;;;;;;;;;;;10.40;99.90;;;;;;4969329;28;19928;-65
2023/05/01 01:09:17;;;;;;;;;;;10.30;99.90;;;;;;4966140;28;19929;-65
2023/05/01 01:11:52;;;;;;;;;;;10.20;99.90;;;;;;4970967;28;19984;-65
2023/05/01 01:14:21;;;;;;;;;;;10.10;99.90;;;;;;4972303;28;19918;-64
2023/05/01 01:16:47;;;;;;;;;;;10.20;99.90;;;;;;4969400;28;20279;-65
2023/05/01 01:19:21;;;;;;;;;;;10.20;99.90;;;;;;4970595;28;19965;-65
2023/05/01 01:21:49;;;;;;;;;;;10.30;99.90;;;;;;4961144;28;19954;-65
2023/05/01 01:24:35;;;;;;;;;;;10.30;99.90;;;;;;4967830;28;19922;-65
2023/05/01 01:27:29;;;;;;;;;;;10.30;99.90;;;;;;4972713;28;19918;-65
2023/05/01 01:30:01;;;;;;;;;;;10.20;99.90;;;;;;4978137;28;19998;-64
2023/05/01 01:32:41;;;;;;;;;;;10.30;99.90;;;;;;4968422;28;19925;-65
2023/05/01 01:35:11;;;;;;;;;;;10.20;99.90;;;;;;4971303;28;19921;-64
2023/05/01 01:37:41;;;;;;;;;;;10.20;99.90;;;;;;4967969;28;20003;-64
2023/05/01 01:40:15;;;;;;;;;;;10.10;99.90;;;;;;4958842;28;20012;-64
2023/05/01 01:42:43;;;;;;;;;;;10.10;99.90;;;;;;4970859;28;19921;-64
2023/05/01 01:45:18;;;;;;;;;;;9.90;99.90;;;;;;4970762;28;20314;-64
2023/05/01 01:47:44;;;;;;;;;;;9.80;99.90;;;;;;4969769;28;20017;-64
2023/05/01 01:50:13;;;;;;;;;;;9.70;99.90;;;;;;4962480;28;20919;-64
2023/05/01 01:52:40;;;;;;;;;;;9.60;99.90;;;;;;4968483;28;19922;-64
2023/05/01 01:55:08;;;;;;;;;;;9.60;99.90;;;;;;4970521;28;20301;-65
2023/05/01 01:57:35;;;;;;;;;;;9.50;99.90;;;;;;4971530;28;19921;-64
2023/05/01 02:00:00;;;;;;;;;;;9.50;99.90;;;;;;4974839;28;20746;-64
2023/05/01 02:02:28;;;;;;;;;;;9.60;99.90;;;;;;4966852;28;19928;-65
2023/05/01 02:04:55;;;;;;;;;;;9.60;99.90;;;;;;4974860;28;20005;-64
2023/05/01 02:07:21;;;;;;;;;;;9.50;99.90;;;;;;4972139;28;20374;-65
2023/05/01 02:09:49;;;;;;;;;;;9.30;99.90;;;;;;4971757;28;19922;-65
2023/05/01 02:12:15;;;;;;;;;;;9.20;99.90;;;;;;4979337;28;20378;-64
2023/05/01 02:14:41;;;;;;;;;;;9.10;99.90;;;;;;4978295;28;19917;-64
2023/05/01 02:17:07;;;;;;;;;;;9.10;99.90;;;;;;4972610;28;19984;-64
2023/05/01 02:19:33;;;;;;;;;;;9.10;99.90;;;;;;4973046;28;19949;-65
2023/05/01 02:22:00;;;;;;;;;;;9.20;99.90;;;;;;4966314;28;20461;-65
2023/05/01 02:24:27;;;;;;;;;;;9.10;99.90;;;;;;4971227;28;19921;-64
2023/05/01 02:26:55;;;;;;;;;;;9.10;99.90;;;;;;4976194;28;19918;-64
2023/05/01 02:29:21;;;;;;;;;;;9.00;99.90;;;;;;4972410;28;19949;-65
2023/05/01 02:31:46;;;;;;;;;;;8.90;99.90;;;;;;4974318;28;20406;-64
2023/05/01 02:34:12;;;;;;;;;;;9.00;99.90;;;;;;4974690;28;20020;-64
2023/05/01 02:36:37;;;;;;;;;;;9.00;99.90;;;;;;4969970;28;20001;-64
2023/05/01 02:39:03;;;;;;;;;;;8.90;99.90;;;;;;4966898;28;20008;-64
2023/05/01 02:41:29;;;;;;;;;;;8.90;99.90;;;;;;4970676;28;19922;-65
2023/05/01 02:43:59;;;;;;;;;;;8.90;99.90;;;;;;4969370;28;19918;-64
2023/05/01 02:46:26;;;;;;;;;;;9.00;99.90;;;;;;4971461;28;20009;-64
2023/05/01 02:48:52;;;;;;;;;;;9.10;99.90;;;;;;4975920;28;19925;-64
2023/05/01 02:51:18;;;;;;;;;;;9.10;99.90;;;;;;4965423;28;20287;-64
2023/05/01 02:53:45;;;;;;;;;;;9.40;99.90;;;;;;4968915;28;19920;-63
2023/05/01 02:56:10;;;;;;;;;;;9.50;99.90;;;;;;4973593;28;20028;-64
2023/05/01 02:58:36;;;;;;;;;;;9.60;99.90;;;;;;4967472;28;19978;-64
2023/05/01 03:01:02;;;;;;;;;;;9.60;99.90;;;;;;4972099;28;19945;-64
2023/05/01 03:03:28;;;;;;;;;;;9.70;99.90;;;;;;4969173;28;20013;-64
2023/05/01 03:05:53;;;;;;;;;;;9.70;99.90;;;;;;4969715;28;20383;-64
2023/05/01 03:08:19;;;;;;;;;;;9.60;99.90;;;;;;4970521;28;20372;-64
2023/05/01 03:10:45;;;;;;;;;;;9.50;99.90;;;;;;4967422;28;20029;-64
2023/05/01 03:13:11;;;;;;;;;;;9.50;99.90;;;;;;4969729;28;19925;-64
2023/05/01 03:15:36;;;;;;;;;;;9.60;99.90;;;;;;4969740;28;19996;-64
2023/05/01 03:18:02;;;;;;;;;;;9.70;99.90;;;;;;4968036;28;19937;-64
2023/05/01 03:20:28;;;;;;;;;;;9.90;99.90;;;;;;4975144;28;20051;-65
2023/05/01 03:22:56;;;;;;;;;;;10.10;99.90;;;;;;4959771;28;20222;-65
2023/05/01 03:25:21;;;;;;;;;;;10.20;99.90;;;;;;4970968;28;19925;-65
2023/05/01 03:27:48;;;;;;;;;;;10.20;99.90;;;;;;4968035;28;19921;-64
2023/05/01 03:30:13;;;;;;;;;;;10.30;99.90;;;;;;4969777;28;20298;-64
2023/05/01 03:32:39;;;;;;;;;;;10.30;99.90;;;;;;4968750;28;19918;-64
2023/05/01 03:35:05;;;;;;;;;;;10.40;99.90;;;;;;4971453;28;19922;-64
2023/05/01 03:37:30;;;;;;;;;;;10.50;99.90;;;;;;4970269;28;19922;-65
2023/05/01 03:39:56;;;;;;;;;;;10.40;99.90;;;;;;4968212;28;19933;-65
2023/05/01 03:42:21;;;;;;;;;;;10.40;99.90;;;;;;4965838;28;19918;-65
2023/05/01 03:44:48;;;;;;;;;;;10.40;99.90;;;;;;4968139;28;19925;-65
2023/05/01 03:47:13;;;;;;;;;;;10.50;99.90;;;;;;4969902;28;19972;-65
2023/05/01 03:49:40;;;;;;;;;;;10.50;99.90;;;;;;4965941;28;19922;-65
2023/05/01 03:52:05;;;;;;;;;;;10.60;99.90;;;;;;4960740;28;19953;-65
2023/05/01 03:54:31;;;;;;;;;;;10.50;99.90;;;;;;4966702;28;20044;-64
2023/05/01 03:56:57;;;;;;;;;;;10.60;99.90;;;;;;4974803;28;20485;-65
2023/05/01 03:59:22;;;;;;;;;;;10.70;99.90;;;;;;4969958;28;19922;-65
2023/05/01 04:01:48;;;;;;;;;;;10.70;99.90;;;;;;4966684;28;19922;-65
2023/05/01 04:04:14;;;;;;;;;;;10.80;99.90;;;;;;4971059;28;20017;-65
2023/05/01 04:06:39;;;;;;;;;;;10.90;99.90;;;;;;4972358;28;19918;-65
2023/05/01 04:09:05;;;;;;;;;;;10.90;99.90;;;;;;4979103;28;20016;-65
2023/05/01 04:11:31;;;;;;;;;;;10.90;99.90;;;;;;4974043;28;19936;-65
2023/05/01 04:13:56;;;;;;;;;;;10.90;99.90;;;;;;4975720;28;19914;-65
2023/05/01 04:16:22;;;;;;;;;;;10.90;99.90;;;;;;4972797;28;19961;-65
2023/05/01 04:18:47;;;;;;;;;;;11.00;99.90;;;;;;4978676;28;19930;-64
2023/05/01 04:21:16;;;;;;;;;;;11.00;99.90;;;;;;4968416;28;19918;-64
2023/05/01 04:23:41;;;;;;;;;;;11.00;99.90;;;;;;4971566;28;19953;-63
2023/05/01 04:26:08;;;;;;;;;;;11.10;99.90;;;;;;4976888;28;20004;-64
2023/05/01 04:28:33;;;;;;;;;;;11.20;99.90;;;;;;4975054;28;19925;-63
2023/05/01 04:30:59;;;;;;;;;;;11.20;99.90;;;;;;4969659;28;20256;-64
2023/05/01 04:33:27;;;;;;;;;;;11.30;99.90;;;;;;4981001;28;19922;-64
2023/05/01 04:35:52;;;;;;;;;;;11.40;99.90;;;;;;4972648;28;19917;-64
2023/05/01 04:38:18;;;;;;;;;;;11.40;99.90;;;;;;4981649;28;19914;-64
2023/05/01 04:40:44;;;;;;;;;;;11.40;99.90;;;;;;4966148;28;20045;-63
2023/05/01 04:43:10;;;;;;;;;;;11.40;99.90;;;;;;4975564;28;19914;-64
2023/05/01 04:45:36;;;;;;;;;;;11.50;99.90;;;;;;4976828;28;19996;-64
2023/05/01 04:48:02;;;;;;;;;;;11.60;99.90;;;;;;4972734;28;19917;-64
2023/05/01 04:50:27;;;;;;;;;;;11.70;99.90;;;;;;4975665;28;19922;-63
2023/05/01 04:52:53;;;;;;;;;;;11.80;99.90;;;;;;4964778;28;19918;-64
2023/05/01 04:55:18;;;;;;;;;;;11.90;99.90;;;;;;4975026;28;19914;-64
2023/05/01 04:57:45;;;;;;;;;;;12.00;99.90;;;;;;4974913;28;19922;-64
2023/05/01 05:00:10;;;;;;;;;;;12.00;99.90;;;;;;4974896;28;19922;-64
2023/05/01 05:02:36;;;;;;;;;;;12.10;99.90;;;;;;4974481;28;19929;-64
2023/05/01 05:05:01;;;;;;;;;;;12.10;99.90;;;;;;4976664;28;20731;-64
2023/05/01 05:07:27;;;;;;;;;;;12.20;99.90;;;;;;4970158;28;20480;-64
2023/05/01 05:09:52;;;;;;;;;;;12.30;99.90;;;;;;4968894;28;19930;-64
2023/05/01 05:12:18;;;;;;;;;;;12.40;99.90;;;;;;4974854;28;20473;-63
2023/05/01 05:14:44;;;;;;;;;;;12.50;99.90;;;;;;4975831;28;19921;-65
2023/05/01 05:17:09;;;;;;;;;;;12.60;99.90;;;;;;4974332;28;20512;-65
2023/05/01 05:19:35;;;;;;;;;;;12.70;99.90;;;;;;4973499;28;20441;-65
2023/05/01 05:22:01;;;;;;;;;;;12.70;99.90;;;;;;4967968;28;19928;-65
2023/05/01 05:24:26;;;;;;;;;;;12.70;99.90;;;;;;4971777;28;20561;-65
2023/05/01 05:26:53;;;;;;;;;;;12.80;99.90;;;;;;4972565;28;19922;-65
2023/05/01 05:29:18;;;;;;;;;;;12.80;99.90;;;;;;4971679;28;19921;-65
2023/05/01 05:31:44;;;;;;;;;;;12.90;99.90;;;;;;4968649;28;19929;-65
2023/05/01 05:34:10;;;;;;;;;;;13.00;99.90;;;;;;4973722;28;20367;-64
2023/05/01 05:36:36;;;;;;;;;;;13.10;99.90;;;;;;4974884;28;19914;-64
2023/05/01 05:39:02;;;;;;;;;;;13.10;99.90;;;;;;4975407;28;20362;-64
2023/05/01 05:41:28;;;;;;;;;;;13.20;99.90;;;;;;4970003;28;19925;-63
2023/05/01 05:43:54;;;;;;;;;;;13.40;99.90;;;;;;4970876;28;20347;-63
2023/05/01 05:46:19;;;;;;;;;;;13.40;99.90;;;;;;4973715;28;19914;-63
2023/05/01 05:48:45;;;;;;;;;;;13.50;99.90;;;;;;4972266;28;20000;-64
2023/05/01 05:51:10;;;;;;;;;;;13.50;99.90;;;;;;4973542;28;20024;-64
2023/05/01 05:53:36;;;;;;;;;;;13.60;99.90;;;;;;4964412;28;19917;-66
2023/05/01 05:56:02;;;;;;;;;;;13.70;99.90;;;;;;4969913;28;20025;-65
2023/05/01 05:58:27;;;;;;;;;;;13.70;99.90;;;;;;4971411;28;20005;-65
2023/05/01 06:00:54;;;;;;;;;;;13.70;99.90;;;;;;4966229;28;19925;-64
2023/05/01 06:03:20;;;;;;;;;;;13.80;99.90;;;;;;4967121;28;19917;-64
2023/05/01 06:05:46;;;;;;;;;;;13.80;99.90;;;;;;4968926;28;21020;-65
2023/05/01 06:08:12;;;;;;;;;;;13.90;99.90;;;;;;4971954;28;20704;-64
2023/05/01 06:10:38;;;;;;;;;;;14.00;99.90;;;;;;4967277;28;19933;-65
2023/05/01 06:13:06;;;;;;;;;;;14.00;99.90;;;;;;4970934;28;19922;-65
2023/05/01 06:15:31;;;;;;;;;;;14.10;99.90;;;;;;4971344;28;19921;-64
2023/05/01 06:17:57;;;;;;;;;;;14.20;99.90;;;;;;4971331;28;19926;-64
2023/05/01 06:20:22;;;;;;;;;;;14.40;99.90;;;;;;4969857;28;19915;-64
2023/05/01 06:22:48;;;;;;;;;;;14.40;99.90;;;;;;4956270;28;19950;-64
2023/05/01 06:25:14;;;;;;;;;;;14.40;99.90;;;;;;4967377;28;20345;-64
2023/05/01 06:27:39;;;;;;;;;;;14.40;99.90;;;;;;4969888;28;20462;-64
2023/05/01 06:30:05;;;;;;;;;;;14.50;99.90;;;;;;4970577;28;21238;-65
2023/05/01 06:32:31;;;;;;;;;;;14.50;99.90;;;;;;4969391;28;19928;-63
2023/05/01 06:34:56;;;;;;;;;;;14.60;99.90;;;;;;4966983;28;19915;-64
2023/05/01 06:37:22;;;;;;;;;;;14.70;99.90;;;;;;4969963;28;19918;-64
2023/05/01 06:39:47;;;;;;;;;;;14.70;99.90;;;;;;4974383;28;19933;-64
2023/05/01 06:42:15;;;;;;;;;;;14.80;99.90;;;;;;4969940;28;19914;-64
2023/05/01 06:44:41;;;;;;;;;;;14.80;99.90;;;;;;4969262;28;19914;-63
2023/05/01 06:47:06;;;;;;;;;;;14.80;99.90;;;;;;4961247;28;20397;-63
2023/05/01 06:49:32;;;;;;;;;;;15.00;99.90;;;;;;4973305;28;19926;-64
2023/05/01 06:51:58;;;;;;;;;;;15.00;99.90;;;;;;4971650;28;19946;-63
2023/05/01 06:54:23;;;;;;;;;;;15.20;99.90;;;;;;4962317;28;19953;-64
2023/05/01 06:56:49;;;;;;;;;;;15.20;99.90;;;;;;4969328;28;20244;-63
2023/05/01 06:59:14;;;;;;;;;;;15.30;98.70;;;;;;4965718;28;19914;-64
2023/05/01 07:01:40;;;;;;;;;;;15.30;99.10;;;;;;4968918;28;20520;-63
2023/05/01 07:04:06;;;;;;;;;;;15.30;99.40;;;;;;4972705;28;19921;-64
2023/05/01 07:06:31;;;;;;;;;;;15.40;98.20;;;;;;4969822;28;19918;-64
2023/05/01 07:08:57;;;;;;;;;;;15.40;99.30;;;;;;4969006;28;19925;-64
2023/05/01 07:11:22;;;;;;;;;;;15.30;98.40;;;;;;4962985;28;19932;-62
2023/05/01 07:13:48;;;;;;;;;;;15.40;97.80;;;;;;4966199;28;19918;-63
2023/05/01 07:16:14;;;;;;;;;;;15.60;97.20;;;;;;4969899;28;20393;-63
2023/05/01 07:18:39;;;;;;;;;;;15.70;97.30;;;;;;4967935;28;19925;-63
2023/05/01 07:21:05;;;;;;;;;;;15.80;97.50;;;;;;4969334;28;20471;-62
2023/05/01 07:23:30;;;;;;;;;;;15.90;95.30;;;;;;4967176;28;19925;-62
2023/05/01 07:25:56;;;;;;;;;;;16.00;94.70;;;;;;4965690;28;21147;-62
2023/05/01 07:28:22;;;;;;;;;;;16.00;94.30;;;;;;4967170;28;20383;-65
2023/05/01 07:30:47;;;;;;;;;;;16.10;94.20;;;;;;4967016;28;20173;-63
2023/05/01 07:33:13;;;;;;;;;;;16.20;95.80;;;;;;4960385;28;20418;-65
2023/05/01 07:35:38;;;;;;;;;;;16.40;95.80;;;;;;4969552;28;20940;-65
2023/05/01 07:38:04;;;;;;;;;;;16.50;93.40;;;;;;4957761;28;19983;-65
2023/05/01 07:40:31;;;;;;;;;;;16.40;93.80;;;;;;4959794;28;20375;-65
2023/05/01 07:42:57;;;;;;;;;;;16.50;93.30;;;;;;4956867;28;19921;-62
2023/05/01 07:45:22;;;;;;;;;;;16.60;94.20;;;;;;4958740;28;19980;-62
2023/05/01 07:47:48;;;;;;;;;;;16.70;93.10;;;;;;4966055;28;19922;-66
2023/05/01 07:50:15;;;;;;;;;;;16.80;94.70;;;;;;4960749;28;20016;-67
2023/05/01 07:52:41;;;;;;;;;;;16.80;93.60;;;;;;4963667;28;19914;-66
2023/05/01 07:55:07;;;;;;;;;;;16.90;93.20;;;;;;4959066;28;20406;-67
2023/05/01 07:57:33;;;;;;;;;;;16.90;93.40;;;;;;4967119;28;19922;-67
2023/05/01 07:59:59;;;;;;;;;;;17.00;93.40;;;;;;4968141;28;19914;-68
2023/05/01 08:02:25;;;;;;;;;;;17.10;93.60;;;;;;4952829;28;19929;-67
2023/05/01 08:04:50;;;;;;;;;;;17.20;91.70;;;;;;4963702;28;20648;-63
2023/05/01 08:07:16;;;;;;;;;;;17.20;91.70;;;;;;4959791;28;19918;-65
2023/05/01 08:09:41;;;;;;;;;;;17.10;91.80;;;;;;4972927;28;19934;-65
2023/05/01 08:12:07;;;;;;;;;;;17.10;91.70;;;;;;4960990;28;20374;-66
2023/05/01 08:14:32;;;;;;;;;;;17.20;90.80;;;;;;4969950;28;19914;-65
2023/05/01 08:16:58;;;;;;;;;;;17.20;90.50;;;;;;4973439;28;20008;-66
2023/05/01 08:19:24;;;;;;;;;;;17.10;91.20;;;;;;4940815;28;19922;-66
2023/05/01 08:21:50;;;;;;;;;;;17.10;90.20;;;;;;4962764;28;19964;-66
2023/05/01 08:24:15;;;;;;;;;;;17.10;90.20;;;;;;4955229;28;19929;-66
2023/05/01 08:26:41;;;;;;;;;;;17.20;91.50;;;;;;4964272;28;19925;-61
2023/05/01 08:29:06;;;;;;;;;;;17.30;90.00;;;;;;4965610;28;20044;-62
2023/05/01 08:31:32;;;;;;;;;;;17.30;90.00;;;;;;4961787;28;20277;-61
2023/05/01 08:33:57;;;;;;;;;;;17.30;90.20;;;;;;4965123;28;19918;-62
2023/05/01 08:36:23;;;;;;;;;;;17.30;90.40;;;;;;4967348;28;20366;-62
2023/05/01 08:38:48;;;;;;;;;;;17.40;90.00;;;;;;4965916;28;20330;-62
2023/05/01 08:41:19;;;;;;;;;;;17.30;91.00;;;;;;4951455;28;19914;-62
2023/05/01 08:43:45;;;;;;;;;;;17.50;91.50;;;;;;4958189;28;19922;-66
2023/05/01 08:46:11;;;;;;;;;;;17.60;90.20;;;;;;4957294;28;19921;-66
2023/05/01 08:48:40;;;;;;;;;;;17.70;91.10;;;;;;4971374;28;19922;-66
2023/05/01 08:51:05;;;;;;;;;;;17.80;89.10;;;;;;4971477;28;19934;-66
2023/05/01 08:53:32;;;;;;;;;;;17.90;91.00;;;;;;4963182;28;19960;-66
2023/05/01 08:55:57;;;;;;;;;;;18.00;89.00;;;;;;4967692;28;19917;-66
2023/05/01 08:58:23;;;;;;;;;;;18.00;87.70;;;;;;4973808;28;20935;-66
2023/05/01 09:00:49;;;;;;;;;;;18.00;91.70;;;;;;4969258;28;19914;-66
2023/05/01 09:03:16;;;;;;;;;;;18.10;92.90;;;;;;4968576;28;19918;-62
2023/05/01 09:05:41;;;;;;;;;;;18.10;88.80;;;;;;4972763;28;20335;-66
2023/05/01 09:08:07;;;;;;;;;;;18.10;90.30;;;;;;4969058;28;19918;-66
2023/05/01 09:10:33;;;;;;;;;;;18.30;90.10;;;;;;4965313;28;19925;-65
2023/05/01 09:13:02;;;;;;;;;;;18.30;90.90;;;;;;4971836;28;19922;-65
2023/05/01 09:15:29;;;;;;;;;;;18.40;87.90;;;;;;4968911;28;19914;-66
2023/05/01 09:17:55;;;;;;;;;;;18.30;87.10;;;;;;4975175;28;20478;-66
2023/05/01 09:20:21;;;;;;;;;;;18.30;89.30;;;;;;4971067;28;19922;-66
2023/05/01 09:22:48;;;;;;;;;;;18.30;90.10;;;;;;4969783;28;19929;-61
2023/05/01 09:25:13;;;;;;;;;;;18.40;90.90;;;;;;4964325;28;19918;-66
2023/05/01 09:27:39;;;;;;;;;;;18.60;91.10;;;;;;4967901;28;23546;-66
2023/05/01 09:30:05;;;;;;;;;;;18.60;91.60;;;;;;4957474;28;19934;-66
2023/05/01 09:32:31;;;;;;;;;;;18.60;91.50;;;;;;4930683;28;19917;-65
2023/05/01 09:35:10;;;;;;;;;;;18.70;91.90;;;;;;4961163;28;19921;-65
2023/05/01 09:37:35;;;;;;;;;;;18.80;92.20;;;;;;4966180;28;20371;-65
2023/05/01 09:40:01;;;;;;;;;;;18.90;91.50;;;;;;4960106;28;19914;-63
2023/05/01 09:42:27;;;;;;;;;;;19.10;89.50;;;;;;4966166;28;21769;-66
2023/05/01 09:44:52;;;;;;;;;;;19.10;86.70;;;;;;4961889;28;19972;-66
2023/05/01 09:47:26;;;;;;;;;;;19.00;85.40;;;;;;4962832;28;20370;-67
2023/05/01 09:49:52;;;;;;;;;;;19.00;88.60;;;;;;4961754;28;20388;-66
2023/05/01 09:52:18;;;;;;;;;;;19.10;89.30;;;;;;4950720;28;20413;-66
2023/05/01 09:54:44;;;;;;;;;;;19.10;87.00;;;;;;4985529;28;19933;-66
2023/05/01 09:57:09;;;;;;;;;;;19.20;86.70;;;;;;4966341;28;19918;-66
2023/05/01 09:59:35;;;;;;;;;;;19.10;85.60;;;;;;4963646;28;20551;-66
2023/05/01 10:02:00;;;;;;;;;;;19.10;85.10;;;;;;4963811;28;19917;-66
2023/05/01 10:04:32;;;;;;;;;;;19.10;88.50;;;;;;4969475;28;20359;-66
2023/05/01 10:07:14;;;;;;;;;;;19.20;83.70;;;;;;4968564;28;19915;-66
2023/05/01 10:09:41;;;;;;;;;;;19.10;84.30;;;;;;4970550;28;19938;-66
2023/05/01 10:12:06;;;;;;;;;;;19.20;89.80;;;;;;4966952;28;19917;-66
2023/05/01 10:14:37;;;;;;;;;;;19.30;84.10;;;;;;4969870;28;19918;-66
2023/05/01 10:17:16;;;;;;;;;;;19.30;83.90;;;;;;4967997;28;19918;-67
2023/05/01 10:19:41;;;;;;;;;;;19.30;84.90;;;;;;4963965;28;20024;-62
2023/05/01 10:22:07;;;;;;;;;;;19.40;84.00;;;;;;4962872;28;20442;-66
2023/05/01 10:24:33;;;;;;;;;;;19.30;83.20;;;;;;4959380;28;19928;-66
2023/05/01 10:26:59;;;;;;;;;;;19.20;85.60;;;;;;4963514;28;20016;-68
2023/05/01 10:29:26;;;;;;;;;;;19.30;83.50;;;;;;4960094;28;19936;-69
2023/05/01 10:31:52;;;;;;;;;;;19.30;86.00;;;;;;4964929;28;19918;-67
2023/05/01 10:34:20;;;;;;;;;;;19.50;86.20;;;;;;4966037;28;19925;-66
2023/05/01 10:36:48;;;;;;;;;;;19.70;84.50;;;;;;4972008;28;19918;-71
2023/05/01 10:39:28;;;;;;;;;;;19.70;82.90;;;;;;4961158;28;19922;-61
2023/05/01 10:41:57;;;;;;;;;;;19.60;82.70;;;;;;4961050;28;19914;-60
2023/05/01 10:44:23;;;;;;;;;;;19.50;84.20;;;;;;4959774;28;20049;-59
2023/05/01 10:46:48;;;;;;;;;;;19.50;88.00;;;;;;4962381;28;20005;-63
2023/05/01 10:49:14;;;;;;;;;;;19.60;89.70;;;;;;4961469;28;19922;-63
2023/05/01 10:51:58;;;;;;;;;;;19.80;90.50;;;;;;4956715;28;20319;-60
2023/05/01 10:54:24;;;;;;;;;;;20.00;87.00;;;;;;4961480;28;19917;-59
2023/05/01 10:56:50;;;;;;;;;;;20.00;83.40;;;;;;4969035;28;19928;-61
2023/05/01 10:59:15;;;;;;;;;;;20.00;84.00;;;;;;4956610;28;19925;-60
2023/05/01 11:01:43;;;;;;;;;;;20.00;85.80;;;;;;4967733;28;20382;-60
2023/05/01 11:04:18;;;;;;;;;;;19.90;83.90;;;;;;4970604;28;19930;-60
2023/05/01 11:07:06;;;;;;;;;;;19.90;82.40;;;;;;4958248;28;19967;-61
2023/05/01 11:09:37;;;;;;;;;;;19.80;82.50;;;;;;4967941;28;19925;-60
2023/05/01 11:12:03;;;;;;;;;;;19.90;87.40;;;;;;4962379;28;19925;-61
2023/05/01 11:14:48;;;;;;;;;;;19.90;81.90;;;;;;4965241;28;19957;-65
2023/05/01 11:17:33;;;;;;;;;;;19.90;82.00;;;;;;4969119;28;20020;-60
2023/05/01 11:19:58;;;;;;;;;;;19.90;80.70;;;;;;4961286;28;20371;-61
2023/05/01 11:22:24;;;;;;;;;;;20.00;83.10;;;;;;4953145;28;20013;-62
2023/05/01 11:24:50;;;;;;;;;;;20.10;80.50;;;;;;4960326;28;19918;-60
2023/05/01 11:27:16;;;;;;;;;;;20.20;81.90;;;;;;4961267;28;19949;-61
2023/05/01 11:29:43;;;;;;;;;;;20.20;81.20;;;;;;4962010;28;19957;-61
2023/05/01 11:32:09;;;;;;;;;;;20.20;85.30;;;;;;4964372;28;19920;-61
2023/05/01 11:34:37;;;;;;;;;;;20.50;86.00;;;;;;4961611;28;19921;-61
2023/05/01 11:37:03;;;;;;;;;;;20.80;81.00;;;;;;4966102;28;20439;-61
2023/05/01 11:39:29;;;;;;;;;;;20.70;77.40;;;;;;4969688;28;19924;-62
2023/05/01 11:42:14;;;;;;;;;;;20.50;79.60;;;;;;4960298;28;20795;-61
2023/05/01 11:44:40;;;;;;;;;;;20.40;79.50;;;;;;4960379;28;19929;-62
2023/05/01 11:47:07;;;;;;;;;;;20.50;80.80;;;;;;4972751;28;19964;-62
2023/05/01 11:49:33;;;;;;;;;;;20.50;78.80;;;;;;4975016;28;20473;-61
2023/05/01 11:51:58;;;;;;;;;;;20.60;78.30;;;;;;4957705;28;19945;-62
2023/05/01 11:54:25;;;;;;;;;;;20.40;79.60;;;;;;4961914;28;19922;-62
2023/05/01 11:56:58;;;;;;;;;;;20.40;78.20;;;;;;4967305;28;19937;-66
2023/05/01 11:59:24;;;;;;;;;;;20.40;77.30;;;;;;4968238;28;20025;-67
2023/05/01 12:01:50;;;;;;;;;;;20.50;81.00;;;;;;4965077;28;19925;-67
2023/05/01 12:04:28;;;;;;;;;;;20.60;77.60;;;;;;4965449;28;19918;-67
2023/05/01 12:06:54;;;;;;;;;;;20.60;76.30;;;;;;4964815;28;20481;-67
2023/05/01 12:09:21;;;;;;;;;;;20.60;81.50;;;;;;4962644;28;19956;-67
2023/05/01 12:11:48;;;;;;;;;;;20.70;79.70;;;;;;4958377;28;19919;-65
2023/05/01 12:14:14;;;;;;;;;;;20.70;81.70;;;;;;4960679;28;19928;-62
2023/05/01 12:16:41;;;;;;;;;;;20.70;74.90;;;;;;4965479;28;20005;-71
2023/05/01 12:19:07;;;;;;;;;;;20.60;75.40;;;;;;4960212;28;19981;-68
2023/05/01 12:21:32;;;;;;;;;;;20.60;77.80;;;;;;4956807;28;20029;-68
2023/05/01 12:24:08;;;;;;;;;;;20.80;75.80;;;;;;4960818;28;19922;-69
2023/05/01 12:26:33;;;;;;;;;;;20.90;78.10;;;;;;4958047;28;19948;-71
2023/05/01 12:29:00;;;;;;;;;;;21.10;79.20;;;;;;4962279;28;19926;-69
2023/05/01 12:31:26;;;;;;;;;;;21.20;78.50;;;;;;4954783;28;20021;-63
2023/05/01 12:33:56;;;;;;;;;;;21.20;76.00;;;;;;4967491;28;19921;-66
2023/05/01 12:36:25;;;;;;;;;;;21.30;76.00;;;;;;4975792;28;19998;-66
2023/05/01 12:38:56;;;;;;;;;;;21.30;75.90;;;;;;4973389;28;19948;-66
2023/05/01 12:41:31;;;;;;;;;;;21.50;77.60;;;;;;4977754;28;19922;-66
2023/05/01 12:43:56;;;;;;;;;;;21.50;74.00;;;;;;4972508;28;19914;-65
2023/05/01 12:46:22;;;;;;;;;;;21.30;75.20;;;;;;4972073;28;19934;-66
2023/05/01 12:48:48;;;;;;;;;;;21.30;75.50;;;;;;4971344;28;19971;-65
2023/05/01 12:51:17;;;;;;;;;;;21.20;76.70;;;;;;4974327;28;19930;-66
2023/05/01 12:53:43;;;;;;;;;;;21.20;77.30;;;;;;4970749;28;19929;-62
2023/05/01 12:56:08;;;;;;;;;;;21.30;75.00;;;;;;4966077;28;20407;-62
2023/05/01 12:58:35;;;;;;;;;;;21.30;74.50;;;;;;4968379;28;19976;-63
2023/05/01 13:01:01;;;;;;;;;;;21.30;74.30;;;;;;4971652;28;19914;-62
2023/05/01 13:03:27;;;;;;;;;;;21.30;71.70;;;;;;4979629;28;19956;-63
2023/05/01 13:05:53;;;;;;;;;;;21.30;73.70;;;;;;4981993;28;19945;-63
2023/05/01 13:08:44;;;;;;;;;;;21.20;75.10;;;;;;4971692;28;20127;-62
2023/05/01 13:11:12;;;;;;;;;;;21.30;74.30;;;;;;4996047;28;20018;-62
2023/05/01 13:13:37;;;;;;;;;;;21.30;73.40;;;;;;4968828;28;19921;-65
2023/05/01 13:16:11;;;;;;;;;;;21.30;73.20;;;;;;4974015;28;20352;-67
2023/05/01 13:18:56;;;;;;;;;;;21.30;75.20;;;;;;4966916;28;20430;-70
2023/05/01 13:21:23;;;;;;;;;;;21.40;73.30;;;;;;4973374;28;19941;-64
2023/05/01 13:23:53;;;;;;;;;;;21.30;74.10;;;;;;4970441;28;19918;-69
2023/05/01 13:26:23;;;;;;;;;;;21.40;73.50;;;;;;4966818;28;20272;-68
2023/05/01 13:28:49;;;;;;;;;;;21.40;71.20;;;;;;4974775;28;19929;-70
2023/05/01 13:31:15;;;;;;;;;;;21.20;71.40;;;;;;4973580;28;20455;-66
2023/05/01 13:33:42;;;;;;;;;;;21.20;73.60;;;;;;4970510;28;19914;-65
2023/05/01 13:36:11;;;;;;;;;;;21.20;71.90;;;;;;4968615;28;19922;-69
2023/05/01 13:38:41;;;;;;;;;;;21.30;72.10;;;;;;4971612;28;19917;-68
2023/05/01 13:41:07;;;;;;;;;;;21.40;75.30;;;;;;4971612;28;19918;-70
2023/05/01 13:43:33;;;;;;;;;;;21.50;71.70;;;;;;4973077;28;19928;-69
2023/05/01 13:45:59;;;;;;;;;;;21.60;70.90;;;;;;4969655;28;19922;-68
2023/05/01 13:48:24;;;;;;;;;;;21.40;71.10;;;;;;4972869;28;19928;-63
2023/05/01 13:50:50;;;;;;;;;;;21.30;71.60;;;;;;4971441;28;19926;-64
2023/05/01 13:53:15;;;;;;;;;;;21.30;73.30;;;;;;4972664;28;19970;-63
2023/05/01 13:55:41;;;;;;;;;;;21.30;71.90;;;;;;4965258;28;19929;-64
2023/05/01 13:58:07;;;;;;;;;;;21.30;72.10;;;;;;4975272;28;19925;-65
2023/05/01 14:00:33;;;;;;;;;;;21.40;71.60;;;;;;4971023;28;20030;-65
2023/05/01 14:02:59;;;;;;;;;;;21.60;72.20;;;;;;4965050;28;20260;-65
2023/05/01 14:05:27;;;;;;;;;;;21.70;72.00;;;;;;4970656;28;20387;-65
2023/05/01 14:07:54;;;;;;;;;;;21.80;70.80;;;;;;4974681;28;20404;-64
2023/05/01 14:10:20;;;;;;;;;;;21.80;70.80;;;;;;4973035;28;20620;-64
2023/05/01 14:12:46;;;;;;;;;;;21.80;71.20;;;;;;4975302;28;19921;-65
2023/05/01 14:15:12;;;;;;;;;;;21.80;68.50;;;;;;4976377;28;19922;-65
2023/05/01 14:17:37;;;;;;;;;;;21.60;70.40;;;;;;4967837;28;19949;-65